Time;durP1;ratioP1;P1;durP2;ratioP2;P2;SDS_P1;SDS_P2;PMS_P1;PMS_P2;Temp;Humidity;BMP_temperature;BMP_pressure;BME280_temperature;BME280_humidity;BME280_pressure;Samples;Min_cycle;Max_cycle;Signal;HPM_P1;HPM_P2
2023/09/02 00:01:21;;;;;;;;;11.50;10.00;;;;;21.15;71.92;101168.31;5057802;28;45422;-41
2023/09/02 00:03:46;;;;;;;;;12.25;11.75;;;;;21.13;72.31;101165.00;5058326;28;45425;-41
2023/09/02 00:06:12;;;;;;;;;11.50;9.00;;;;;21.09;72.59;101167.28;5058061;28;45415;-41
2023/09/02 00:08:37;;;;;;;;;11.00;11.00;;;;;21.08;72.67;101172.91;5057863;28;45750;-41
2023/09/02 00:11:02;;;;;;;;;12.00;9.00;;;;;21.01;73.02;101163.94;5057804;28;45422;-41
2023/09/02 00:13:28;;;;;;;;;10.25;10.25;;;;;20.98;73.21;101165.16;5058021;28;45470;-42
2023/09/02 00:15:53;;;;;;;;;9.25;9.00;;;;;20.93;73.01;101173.91;5058082;28;45401;-41
2023/09/02 00:18:18;;;;;;;;;9.75;8.00;;;;;20.88;73.27;101172.84;5057261;28;47038;-41
2023/09/02 00:20:43;;;;;;;;;11.50;10.00;;;;;20.87;73.65;101176.59;5057786;28;45412;-41
2023/09/02 00:23:09;;;;;;;;;10.25;9.00;;;;;20.81;74.01;101180.94;5057681;28;45305;-41
2023/09/02 00:25:34;;;;;;;;;12.25;10.00;;;;;20.81;73.51;101172.81;5057698;28;45494;-41
2023/09/02 00:27:59;;;;;;;;;10.00;8.00;;;;;20.80;73.92;101176.56;5057246;28;46861;-41
2023/09/02 00:30:25;;;;;;;;;11.50;10.00;;;;;20.62;73.97;101143.88;5057146;28;45400;-40
2023/09/02 00:32:51;;;;;;;;;15.50;10.75;;;;;20.74;74.15;101166.59;5057480;28;45373;-40
2023/09/02 00:35:16;;;;;;;;;14.00;8.75;;;;;20.74;73.95;101166.59;5057673;28;45416;-41
2023/09/02 00:37:41;;;;;;;;;11.50;11.00;;;;;20.74;74.80;101177.41;5057186;28;46434;-41
2023/09/02 00:40:13;;;;;;;;;12.00;11.50;;;;;20.71;74.73;101171.56;5057101;28;45710;-41
2023/09/02 00:42:40;;;;;;;;;11.50;10.25;;;;;20.68;74.77;101179.03;5057464;28;45387;-40
2023/09/02 00:45:06;;;;;;;;;12.00;10.50;;;;;20.68;75.04;101183.59;5057881;28;45468;-41
2023/09/02 00:47:31;;;;;;;;;13.00;11.00;;;;;20.65;74.84;101182.16;5057184;28;46086;-41
2023/09/02 00:49:57;;;;;;;;;10.00;10.00;;;;;20.64;74.92;101183.16;5057316;28;45383;-42
2023/09/02 00:52:23;;;;;;;;;10.25;7.00;;;;;20.60;75.07;101179.19;5057159;28;45371;-41
2023/09/02 00:54:49;;;;;;;;;7.00;7.00;;;;;20.59;75.46;101182.94;5056337;28;45598;-41
2023/09/02 00:57:14;;;;;;;;;11.00;8.00;;;;;20.57;75.56;101178.78;5057035;28;45762;-41
2023/09/02 00:59:40;;;;;;;;;12.25;9.25;;;;;20.55;75.23;101178.97;5057036;28;45281;-40
2023/09/02 01:02:08;;;;;;;;;11.00;9.75;;;;;20.48;75.56;101171.84;5056150;28;45455;-41
2023/09/02 01:04:34;;;;;;;;;10.00;9.25;;;;;20.52;75.30;101171.28;5057034;28;45412;-40
2023/09/02 01:07:01;;;;;;;;;14.00;10.00;;;;;20.53;75.91;101172.13;5055501;28;45377;-41
2023/09/02 01:09:27;;;;;;;;;10.00;8.50;;;;;20.49;76.09;101168.16;5056822;28;45310;-40
2023/09/02 01:11:52;;;;;;;;;17.00;14.00;;;;;20.21;76.25;101133.91;5057014;28;45315;-41
2023/09/02 01:14:19;;;;;;;;;9.00;8.00;;;;;20.38;75.87;101164.13;5057206;28;45151;-41
2023/09/02 01:16:44;;;;;;;;;10.50;8.75;;;;;20.42;75.66;101182.41;5056509;28;46637;-42
2023/09/02 01:19:15;;;;;;;;;12.00;8.75;;;;;20.40;76.27;101181.81;5056744;28;45370;-41
2023/09/02 01:22:01;;;;;;;;;11.00;9.00;;;;;20.37;75.89;101186.78;5056751;28;45407;-41
2023/09/02 01:25:04;;;;;;;;;12.00;9.00;;;;;20.33;76.12;101180.09;5056942;28;45266;-41
2023/09/02 01:28:07;;;;;;;;;9.25;8.00;;;;;20.27;75.99;101180.88;5056527;28;46263;-41
2023/09/02 01:30:33;;;;;;;;;10.00;8.25;;;;;20.06;76.59;101157.53;4994498;28;45541;-41
2023/09/02 01:33:04;;;;;;;;;7.00;6.00;;;;;20.19;76.14;101188.13;4994878;28;45495;-41
2023/09/02 01:35:33;;;;;;;;;9.75;8.00;;;;;20.19;76.73;101190.00;4994862;28;45285;-41
2023/09/02 01:38:01;;;;;;;;;8.00;7.25;;;;;20.13;76.36;101178.09;4994408;28;46518;-42
2023/09/02 01:40:28;;;;;;;;;7.00;7.00;;;;;20.14;76.81;101187.91;4993431;28;45380;-40
2023/09/02 01:42:57;;;;;;;;;9.75;7.00;;;;;20.12;76.25;101184.56;4994720;28;45500;-41
2023/09/02 01:45:27;;;;;;;;;6.00;5.00;;;;;20.10;76.61;101186.63;4994257;28;45653;-41
2023/09/02 01:47:54;;;;;;;;;6.50;6.00;;;;;20.01;76.48;101179.69;4994231;28;46778;-42
2023/09/02 01:50:25;;;;;;;;;8.75;6.00;;;;;20.02;75.89;101185.97;4994358;28;45279;-40
2023/09/02 01:52:51;;;;;;;;;9.75;8.00;;;;;19.98;76.43;101166.63;4994309;28;45478;-40
2023/09/02 01:55:17;;;;;;;;;5.75;5.00;;;;;19.96;76.62;101174.06;4994696;28;45447;-41
2023/09/02 01:57:43;;;;;;;;;6.75;6.75;;;;;19.93;76.55;101177.16;4994123;28;47367;-42
2023/09/02 02:00:09;;;;;;;;;5.00;5.00;;;;;19.92;76.78;101175.47;4993754;28;45547;-41
2023/09/02 02:02:37;;;;;;;;;5.25;5.25;;;;;19.90;76.99;101170.28;4994220;28;45363;-40
2023/09/02 02:05:05;;;;;;;;;5.00;5.00;;;;;19.88;77.01;101163.41;4999469;28;45506;-41
2023/09/02 02:07:36;;;;;;;;;7.50;6.25;;;;;19.78;77.18;101152.97;5056183;28;47246;-42
2023/09/02 02:10:07;;;;;;;;;5.75;5.00;;;;;19.85;77.05;101158.44;5055965;28;45356;-40
2023/09/02 02:12:33;;;;;;;;;3.00;3.00;;;;;19.82;77.56;101156.13;5055932;28;45388;-39
2023/09/02 02:14:59;;;;;;;;;4.00;3.75;;;;;19.81;77.47;101159.84;5056463;28;45388;-41
2023/09/02 02:17:25;;;;;;;;;9.25;5.00;;;;;19.80;77.31;101150.06;5055797;28;46211;-41
2023/09/02 02:19:51;;;;;;;;;5.00;5.00;;;;;19.76;77.21;101143.38;5055611;28;45219;-41
2023/09/02 02:22:16;;;;;;;;;6.00;5.00;;;;;19.78;77.58;101138.66;5055982;28;45445;-41
2023/09/02 02:24:41;;;;;;;;;5.25;5.25;;;;;19.76;78.14;101138.00;5056316;28;45433;-39
2023/09/02 02:27:07;;;;;;;;;6.00;4.00;;;;;19.74;77.23;101135.50;5054536;28;46317;-41
2023/09/02 02:29:32;;;;;;;;;4.00;4.00;;;;;19.73;77.53;101149.22;5055863;28;45479;-41
2023/09/02 02:31:57;;;;;;;;;4.75;4.00;;;;;19.69;77.94;101155.00;5056169;28;45364;-41
2023/09/02 02:34:26;;;;;;;;;5.25;4.00;;;;;19.67;77.88;101153.50;5056012;28;45777;-40
2023/09/02 02:36:51;;;;;;;;;5.00;5.00;;;;;19.61;77.87;101151.59;5054367;28;47317;-41
2023/09/02 02:39:17;;;;;;;;;6.00;6.00;;;;;19.60;77.90;101161.53;5055768;28;45418;-42
2023/09/02 02:41:42;;;;;;;;;6.25;5.00;;;;;19.59;77.97;101161.72;5055826;28;45525;-41
2023/09/02 02:44:07;;;;;;;;;6.25;4.75;;;;;19.55;78.21;101165.84;5056237;28;45335;-42
2023/09/02 02:46:32;;;;;;;;;8.00;5.00;;;;;19.53;77.89;101162.50;5055769;28;46248;-42
2023/09/02 02:48:58;;;;;;;;;6.00;4.25;;;;;19.49;78.35;101159.38;5055817;28;45446;-42
2023/09/02 02:51:23;;;;;;;;;4.75;4.00;;;;;19.47;78.03;101160.56;5057119;28;45319;-42
2023/09/02 02:53:48;;;;;;;;;5.00;4.25;;;;;19.39;78.48;101157.00;5059387;28;45352;-41
2023/09/02 02:56:14;;;;;;;;;4.00;4.00;;;;;19.33;78.65;101163.16;5057742;28;46336;-39
2023/09/02 02:58:40;;;;;;;;;6.50;4.00;;;;;19.27;78.87;101153.16;5058827;28;45457;-40
2023/09/02 03:01:08;;;;;;;;;8.00;4.50;;;;;19.33;79.20;101156.94;5059100;28;45484;-40
2023/09/02 03:03:35;;;;;;;;;4.00;4.00;;;;;19.15;78.84;101133.13;5059186;28;45472;-40
2023/09/02 03:06:03;;;;;;;;;4.00;4.00;;;;;19.35;79.08;101163.00;5058902;28;46095;-39
2023/09/02 03:08:29;;;;;;;;;3.75;3.75;;;;;19.34;78.81;101170.25;5058776;28;45481;-40
2023/09/02 03:10:58;;;;;;;;;6.50;4.00;;;;;19.31;78.84;101159.00;5058966;28;45487;-41
2023/09/02 03:13:24;;;;;;;;;2.50;2.50;;;;;19.33;79.06;101171.25;5059007;28;45382;-41
2023/09/02 03:15:50;;;;;;;;;8.00;4.00;;;;;19.33;78.58;101183.91;5058664;28;46628;-41
2023/09/02 03:18:16;;;;;;;;;4.00;4.00;;;;;19.32;78.90;101174.16;5058954;28;45458;-42
2023/09/02 03:20:41;;;;;;;;;4.00;3.75;;;;;19.34;78.85;101172.09;5058719;28;45436;-40
2023/09/02 03:23:06;;;;;;;;;3.75;3.75;;;;;19.35;78.76;101181.88;5059187;28;45332;-40
2023/09/02 03:25:32;;;;;;;;;4.00;4.00;;;;;19.31;78.53;101175.19;5058297;28;46392;-41
2023/09/02 03:27:59;;;;;;;;;3.00;3.00;;;;;19.38;78.50;101192.25;5058724;28;45423;-40
2023/09/02 03:30:25;;;;;;;;;4.25;4.25;;;;;19.39;78.25;101189.38;5058705;28;45187;-41
2023/09/02 03:32:50;;;;;;;;;4.75;4.25;;;;;19.42;78.28;101188.13;5058865;28;45483;-41
2023/09/02 03:35:15;;;;;;;;;3.25;3.25;;;;;19.41;78.27;101187.31;5058500;28;46146;-40
2023/09/02 03:37:43;;;;;;;;;3.00;3.00;;;;;19.44;78.47;101192.31;5058410;28;45493;-40
2023/09/02 03:40:08;;;;;;;;;3.75;3.25;;;;;19.41;78.49;101183.78;5058705;28;45412;-41
2023/09/02 03:42:33;;;;;;;;;3.00;3.00;;;;;19.40;78.04;101182.94;5058432;28;45415;-41
2023/09/02 03:44:59;;;;;;;;;5.75;2.75;;;;;19.45;78.34;101198.56;5058345;28;46304;-41
2023/09/02 03:47:32;;;;;;;;;6.50;4.25;;;;;19.45;77.98;101203.94;5058406;28;45406;-41
2023/09/02 03:50:04;;;;;;;;;3.75;3.00;;;;;19.48;77.89;101208.13;5056981;28;45494;-40
2023/09/02 03:52:30;;;;;;;;;6.00;5.00;;;;;19.49;77.90;101204.41;5058417;28;45330;-40
2023/09/02 03:54:56;;;;;;;;;5.00;4.00;;;;;19.40;77.89;101191.03;5057941;28;46198;-38
2023/09/02 03:57:21;;;;;;;;;1.00;1.00;;;;;19.45;77.91;101195.84;5058354;28;45561;-40
2023/09/02 03:59:47;;;;;;;;;5.00;3.75;;;;;19.46;78.01;101194.81;5058233;28;45361;-41
2023/09/02 04:02:13;;;;;;;;;3.75;3.75;;;;;19.48;77.95;101195.47;5058016;28;45454;-41
2023/09/02 04:04:39;;;;;;;;;3.00;3.00;;;;;19.49;78.20;101190.91;5057662;28;46559;-41
2023/09/02 04:07:05;;;;;;;;;6.75;5.00;;;;;19.50;77.86;101174.50;5057890;28;45340;-41
2023/09/02 04:09:30;;;;;;;;;3.25;3.25;;;;;19.49;77.86;101175.56;5058221;28;45461;-42
2023/09/02 04:11:57;;;;;;;;;3.25;3.25;;;;;19.47;77.96;101168.66;5058067;28;45443;-39
2023/09/02 04:14:23;;;;;;;;;3.75;3.75;;;;;19.49;77.52;101183.66;5058084;28;45368;-40
2023/09/02 04:16:48;;;;;;;;;6.00;4.00;;;;;19.45;77.75;101187.75;5057824;28;45417;-42
2023/09/02 04:19:17;;;;;;;;;5.00;3.00;;;;;19.42;77.88;101180.03;5057922;28;45632;-41
2023/09/02 04:21:43;;;;;;;;;2.00;2.00;;;;;19.41;78.24;101183.78;5058042;28;45456;-40
2023/09/02 04:24:08;;;;;;;;;5.00;4.00;;;;;19.39;78.38;101181.28;5057676;28;47487;-41
2023/09/02 04:26:33;;;;;;;;;5.00;4.00;;;;;19.38;78.16;101179.63;5057551;28;45396;-41
2023/09/02 04:29:00;;;;;;;;;4.00;4.00;;;;;19.36;77.77;101173.56;5057681;28;45403;-40
2023/09/02 04:31:25;;;;;;;;;3.25;3.25;;;;;19.37;77.40;101179.81;5057781;28;45469;-40
2023/09/02 04:33:51;;;;;;;;;4.00;2.75;;;;;19.33;77.27;101183.91;5057690;28;46052;-41
2023/09/02 04:36:16;;;;;;;;;4.00;3.00;;;;;19.34;77.53;101186.44;5057186;28;45436;-41
2023/09/02 04:38:41;;;;;;;;;3.25;3.25;;;;;19.33;77.62;101187.44;5057879;28;45484;-39
2023/09/02 04:41:07;;;;;;;;;3.00;3.00;;;;;19.31;78.03;101194.06;5057781;28;45417;-41
2023/09/02 04:43:33;;;;;;;;;5.00;3.25;;;;;19.30;78.02;101195.94;5057436;28;46116;-41
2023/09/02 04:46:03;;;;;;;;;4.00;3.00;;;;;19.27;77.70;101190.09;5057528;28;45393;-41
2023/09/02 04:48:29;;;;;;;;;3.25;3.00;;;;;19.32;77.99;101201.13;5055644;28;45937;-39
2023/09/02 04:50:55;;;;;;;;;4.50;3.50;;;;;19.25;78.06;101186.75;5057446;28;45320;-41
2023/09/02 04:53:21;;;;;;;;;3.50;3.50;;;;;19.29;77.93;101194.25;5057251;28;47262;-41
2023/09/02 04:55:47;;;;;;;;;4.00;4.00;;;;;19.29;77.98;101191.56;5057354;28;45415;-42
2023/09/02 04:58:13;;;;;;;;;3.75;3.50;;;;;19.27;78.07;101190.94;5057125;28;45233;-40
2023/09/02 05:00:38;;;;;;;;;5.25;4.25;;;;;19.25;77.91;101184.88;5057776;28;45364;-40
2023/09/02 05:03:04;;;;;;;;;3.00;2.00;;;;;19.28;78.08;101197.16;5056899;28;46930;-40
2023/09/02 05:05:31;;;;;;;;;1.00;1.00;;;;;19.28;77.66;101197.97;5057402;28;45340;-40
2023/09/02 05:07:57;;;;;;;;;2.75;2.75;;;;;19.28;77.50;101197.16;5057119;28;45181;-40
2023/09/02 05:10:23;;;;;;;;;2.75;2.75;;;;;19.27;77.40;101198.19;5057373;28;45469;-39
2023/09/02 05:12:49;;;;;;;;;4.00;4.00;;;;;19.28;77.56;101206.06;5056963;28;47119;-39
2023/09/02 05:15:14;;;;;;;;;4.00;4.00;;;;;19.33;77.35;101210.88;5055704;28;45387;-38
2023/09/02 05:17:40;;;;;;;;;3.00;3.00;;;;;19.36;77.43;101207.81;5057484;28;45459;-41
2023/09/02 05:20:06;;;;;;;;;5.00;3.50;;;;;19.38;77.11;101208.44;5056120;28;45498;-40
2023/09/02 05:22:32;;;;;;;;;2.00;2.00;;;;;19.41;77.64;101221.56;5056704;28;45462;-40
2023/09/02 05:24:58;;;;;;;;;3.20;3.20;;;;;19.36;77.21;101199.72;5056663;28;45476;-40
2023/09/02 05:27:23;;;;;;;;;4.50;4.50;;;;;19.45;77.18;101212.88;5056921;28;45423;-40
2023/09/02 05:29:49;;;;;;;;;8.75;4.00;;;;;19.52;77.00;101222.91;5057152;28;45236;-39
2023/09/02 05:32:16;;;;;;;;;6.00;3.00;;;;;19.54;76.72;101224.38;5056651;28;46446;-39
2023/09/02 05:34:42;;;;;;;;;4.25;4.00;;;;;19.53;76.77;101217.31;5056799;28;45397;-40
2023/09/02 05:37:07;;;;;;;;;5.00;4.50;;;;;19.62;76.75;101226.97;5056659;28;45549;-40
2023/09/02 05:39:33;;;;;;;;;4.00;2.00;;;;;19.63;76.37;101219.69;5056871;28;45325;-41
2023/09/02 05:41:58;;;;;;;;;5.50;4.50;;;;;19.61;76.37;101222.59;5056441;28;45407;-39
2023/09/02 05:44:23;;;;;;;;;34.00;30.33;;;;;19.73;76.43;101232.88;5056329;28;45444;-40
2023/09/02 05:46:49;;;;;;;;;8.25;7.00;;;;;19.77;76.27;101240.41;5056550;28;45412;-40
2023/09/02 05:49:15;;;;;;;;;2.00;2.00;;;;;19.82;76.25;101242.50;5056605;28;45553;-41
2023/09/02 05:51:40;;;;;;;;;6.25;4.50;;;;;19.88;75.75;101250.63;5056359;28;45426;-40
2023/09/02 05:54:07;;;;;;;;;3.75;3.75;;;;;20.00;75.16;101258.22;5056344;28;45398;-40
2023/09/02 05:56:34;;;;;;;;;4.75;4.00;;;;;20.06;75.26;101258.28;5056308;28;45262;-39
2023/09/02 05:59:00;;;;;;;;;6.00;4.00;;;;;20.11;74.61;101261.22;5056270;28;45315;-40
2023/09/02 06:01:25;;;;;;;;;5.00;3.50;;;;;20.14;74.30;101260.84;5056027;28;46503;-40
2023/09/02 06:03:51;;;;;;;;;7.00;5.75;;;;;20.13;74.11;101256.44;5055892;28;45338;-40
2023/09/02 06:06:16;;;;;;;;;4.50;4.00;;;;;20.10;74.28;101242.50;5056256;28;45327;-40
2023/09/02 06:08:41;;;;;;;;;3.25;3.00;;;;;20.15;74.46;101250.88;5056260;28;45334;-39
2023/09/02 06:11:07;;;;;;;;;4.25;4.25;;;;;20.22;74.22;101256.28;5055978;28;45996;-39
2023/09/02 06:13:32;;;;;;;;;4.50;4.00;;;;;20.26;73.93;101257.56;5055889;28;45480;-38
2023/09/02 06:16:03;;;;;;;;;4.50;3.00;;;;;20.25;73.54;101261.31;5056140;28;45423;-41
2023/09/02 06:18:29;;;;;;;;;3.00;3.00;;;;;20.26;73.55;101258.41;5056245;28;45317;-38
2023/09/02 06:20:54;;;;;;;;;5.50;4.00;;;;;20.18;73.48;101248.59;5055783;28;47306;-39
2023/09/02 06:23:20;;;;;;;;;3.25;3.25;;;;;20.23;73.23;101257.97;5037637;28;45494;-41
2023/09/02 06:25:57;;;;;;;;;4.75;4.00;;;;;20.28;73.20;101267.16;5056388;28;45391;-41
2023/09/02 06:28:23;;;;;;;;;3.00;3.00;;;;;20.29;73.07;101270.69;5059674;28;45454;-40
2023/09/02 06:30:48;;;;;;;;;4.00;3.25;;;;;20.27;72.77;101270.91;5059212;28;47461;-40
2023/09/02 06:33:15;;;;;;;;;3.00;3.00;;;;;20.27;73.00;101270.03;5059330;28;45414;-41
2023/09/02 06:35:40;;;;;;;;;4.50;3.00;;;;;20.21;73.47;101273.53;5059364;28;45509;-39
2023/09/02 06:38:05;;;;;;;;;2.75;2.75;;;;;20.24;73.44;101278.56;5059418;28;45500;-40
2023/09/02 06:40:31;;;;;;;;;3.50;3.50;;;;;20.27;73.00;101281.69;5059158;28;48831;-41
2023/09/02 06:42:56;;;;;;;;;4.25;4.25;;;;;20.35;72.92;101284.25;5058972;28;45457;-41
2023/09/02 06:45:21;;;;;;;;;4.00;4.00;;;;;20.39;73.17;101284.66;5059061;28;45844;-40
2023/09/02 06:47:46;;;;;;;;;4.00;3.75;;;;;20.42;72.33;101282.41;5059309;28;45490;-39
2023/09/02 06:50:12;;;;;;;;;6.00;4.00;;;;;20.45;72.80;101278.50;5059433;28;45396;-41
2023/09/02 06:52:37;;;;;;;;;4.00;3.50;;;;;20.43;72.66;101259.75;5059198;28;45384;-39
2023/09/02 06:55:03;;;;;;;;;5.00;4.25;;;;;20.51;72.84;101264.19;5059229;28;45309;-40
2023/09/02 06:57:29;;;;;;;;;3.00;3.00;;;;;20.56;72.79;101260.88;5059353;28;45170;-41
2023/09/02 06:59:54;;;;;;;;;3.25;3.00;;;;;20.64;72.09;101256.16;5059015;28;45674;-40
2023/09/02 07:02:19;;;;;;;;;5.00;3.50;;;;;20.82;71.47;101268.31;5058843;28;45358;-41
2023/09/02 07:04:48;;;;;;;;;5.00;3.25;;;;;20.99;70.96;101271.50;5059042;28;45176;-40
2023/09/02 07:07:13;;;;;;;;;3.50;3.50;;;;;21.23;70.15;101275.53;5059237;28;45431;-39
2023/09/02 07:09:38;;;;;;;;;2.75;2.75;;;;;21.58;69.39;101285.22;5059110;28;46092;-40
2023/09/02 07:12:04;;;;;;;;;6.50;5.00;;;;;22.14;67.45;101286.72;5058743;28;45394;-40
2023/09/02 07:14:29;;;;;;;;;4.75;4.00;;;;;22.98;65.28;101283.19;5058792;28;45339;-40
2023/09/02 07:16:55;;;;;;;;;3.25;3.00;;;;;24.10;62.43;101295.25;5058888;28;45295;-39
2023/09/02 07:19:20;;;;;;;;;3.00;3.00;;;;;24.80;58.99;101289.50;5058453;28;47054;-37
2023/09/02 07:21:45;;;;;;;;;3.25;3.25;;;;;24.58;58.97;101294.56;5058635;28;45465;-40
2023/09/02 07:24:11;;;;;;;;;3.00;3.00;;;;;24.37;60.34;101295.84;5058729;28;45261;-40
2023/09/02 07:26:36;;;;;;;;;3.00;3.00;;;;;24.26;59.92;101292.97;5058759;28;45500;-40
2023/09/02 07:29:01;;;;;;;;;6.75;3.25;;;;;24.21;60.15;101296.38;5057105;28;46113;-41
2023/09/02 07:31:27;;;;;;;;;5.00;3.00;;;;;24.18;60.28;101285.94;5058443;28;45462;-39
2023/09/02 07:33:52;;;;;;;;;2.00;2.00;;;;;24.22;60.30;101294.50;5058949;28;45838;-39
2023/09/02 07:36:18;;;;;;;;;0.75;0.75;;;;;24.32;59.50;101294.81;5058653;28;45382;-40
2023/09/02 07:38:44;;;;;;;;;2.25;2.25;;;;;24.41;59.22;101282.63;5057223;28;46464;-40
2023/09/02 07:41:09;;;;;;;;;4.00;3.00;;;;;24.47;59.24;101302.63;5058649;28;45422;-42
2023/09/02 07:43:35;;;;;;;;;4.25;2.75;;;;;24.86;57.71;101312.25;5058573;28;45415;-41
2023/09/02 07:46:01;;;;;;;;;5.00;2.50;;;;;24.60;58.42;101325.09;5058059;28;45344;-41
2023/09/02 07:48:26;;;;;;;;;3.50;3.00;;;;;24.49;58.52;101331.28;5058324;28;47146;-49
2023/09/02 07:50:51;;;;;;;;;4.00;4.00;;;;;24.38;59.52;101341.00;5058406;28;45313;-41
2023/09/02 07:53:16;;;;;;;;;4.00;4.00;;;;;24.34;59.51;101352.53;5058190;28;45225;-41
2023/09/02 07:55:42;;;;;;;;;4.50;3.00;;;;;24.31;59.09;101355.69;5058478;28;45452;-41
2023/09/02 07:58:07;;;;;;;;;2.00;2.00;;;;;25.46;57.27;101366.00;5057952;28;45396;-41
2023/09/02 08:00:34;;;;;;;;;3.00;3.00;;;;;26.21;55.33;101358.19;5058372;28;45546;-42
2023/09/02 08:02:59;;;;;;;;;3.00;3.00;;;;;27.01;53.01;101322.06;5058276;28;45511;-42
2023/09/02 08:05:24;;;;;;;;;4.00;4.00;;;;;28.63;50.03;101348.97;5058193;28;45558;-41
2023/09/02 08:07:50;;;;;;;;;2.25;2.00;;;;;30.25;46.14;101358.19;5057911;28;46083;-40
2023/09/02 08:10:16;;;;;;;;;2.25;2.25;;;;;31.61;43.09;101368.53;5058001;28;45491;-40
2023/09/02 08:12:42;;;;;;;;;3.50;3.00;;;;;32.73;40.01;101363.00;5058232;28;45426;-42
2023/09/02 08:15:11;;;;;;;;;2.60;2.60;;;;;33.61;39.05;101362.34;5058115;28;45514;-40
2023/09/02 08:17:38;;;;;;;;;2.40;2.40;;;;;34.44;37.49;101355.03;5056473;28;46548;-39
2023/09/02 08:20:04;;;;;;;;;4.40;2.80;;;;;34.75;36.68;101352.78;5057905;28;45431;-39
2023/09/02 08:22:29;;;;;;;;;4.00;3.00;;;;;34.69;37.37;101349.25;5057744;28;45462;-40
2023/09/02 08:24:55;;;;;;;;;2.25;2.25;;;;;34.79;36.43;101336.44;5057828;28;45478;-40
2023/09/02 08:27:21;;;;;;;;;2.75;2.00;;;;;34.95;36.23;101341.47;5057707;28;45802;-40
2023/09/02 08:29:46;;;;;;;;;1.25;1.25;;;;;35.26;35.51;101346.63;5057675;28;45481;-41
2023/09/02 08:32:11;;;;;;;;;2.25;2.25;;;;;35.52;34.84;101343.50;5056478;28;45456;-40
2023/09/02 08:34:37;;;;;;;;;3.75;2.00;;;;;35.64;34.05;101338.34;5057884;28;45344;-40
2023/09/02 08:37:03;;;;;;;;;3.00;0.75;;;;;35.75;34.70;101331.50;5057094;28;45481;-39
2023/09/02 08:39:28;;;;;;;;;2.20;2.20;;;;;35.93;34.02;101321.50;5057371;28;45380;-40
2023/09/02 08:41:55;;;;;;;;;5.00;4.00;;;;;36.20;33.95;101320.81;5057519;28;45476;-40
2023/09/02 08:44:22;;;;;;;;;4.20;4.20;;;;;36.42;33.41;101307.06;5057325;28;45354;-41
2023/09/02 08:46:51;;;;;;;;;5.00;4.00;;;;;36.87;33.20;101320.28;5056941;28;45518;-38
2023/09/02 08:49:18;;;;;;;;;1.60;1.60;;;;;37.26;31.85;101319.75;5057034;28;45770;-40
2023/09/02 08:51:45;;;;;;;;;5.80;4.00;;;;;37.59;32.24;101308.44;5057205;28;45294;-39
2023/09/02 08:54:12;;;;;;;;;8.00;8.00;;;;;38.12;31.38;101311.25;5057778;28;45319;-39
2023/09/02 08:56:41;;;;;;;;;5.00;5.00;;;;;39.16;31.15;101308.81;5056696;28;46503;-39
2023/09/02 08:59:10;;;;;;;;;5.80;5.00;;;;;41.03;27.83;101323.25;5056967;28;45408;-38
2023/09/02 09:01:41;;;;;;;;;5.80;5.20;;;;;43.06;26.11;101322.03;5057256;28;45256;-39
2023/09/02 09:04:07;;;;;;;;;6.40;4.80;;;;;44.31;23.59;101325.53;5057259;28;45468;-39
2023/09/02 09:06:34;;;;;;;;;6.00;4.60;;;;;45.39;22.27;101317.59;5056920;28;46867;-39
2023/09/02 09:09:00;;;;;;;;;7.80;4.80;;;;;46.58;21.15;101318.56;5056767;28;45302;-40
2023/09/02 09:11:30;;;;;;;;;5.00;3.25;;;;;47.61;20.76;101315.50;5057199;28;45232;-44
2023/09/02 09:13:58;;;;;;;;;5.20;4.40;;;;;48.54;19.93;101307.88;5057144;28;45277;-39
2023/09/02 09:16:25;;;;;;;;;4.80;4.80;;;;;49.42;18.82;101310.34;5056351;28;46090;-40
2023/09/02 09:18:51;;;;;;;;;4.00;4.00;;;;;50.01;18.03;101309.28;5056661;28;45291;-40
2023/09/02 09:21:17;;;;;;;;;3.50;2.75;;;;;50.58;17.23;101297.94;5056607;28;45402;-39
2023/09/02 09:23:43;;;;;;;;;5.40;4.80;;;;;51.20;16.75;101296.47;5056919;28;45375;-40
2023/09/02 09:26:11;;;;;;;;;2.50;2.50;;;;;51.81;16.56;101305.44;5056659;28;45593;-41
2023/09/02 09:28:54;;;;;;;;;2.75;2.25;;;;;52.27;16.08;101310.75;5056240;28;45379;-39
2023/09/02 09:31:20;;;;;;;;;3.25;3.25;;;;;52.95;15.55;101309.22;5056491;28;45391;-39
2023/09/02 09:33:49;;;;;;;;;2.75;2.75;;;;;53.45;14.71;101311.41;5056937;28;45388;-39
2023/09/02 09:36:14;;;;;;;;;4.50;3.75;;;;;54.02;14.80;101319.03;5056137;28;45559;-40
2023/09/02 09:38:39;;;;;;;;;2.33;2.33;;;;;54.46;14.71;101315.00;5056298;28;45358;-39
2023/09/02 09:41:08;;;;;;;;;2.67;2.67;;;;;54.97;13.91;101315.63;5056580;28;45226;-39
2023/09/02 09:43:34;;;;;;;;;3.00;3.00;;;;;55.30;14.31;101322.25;5056190;28;45367;-40
2023/09/02 09:45:59;;;;;;;;;4.33;3.00;;;;;55.70;12.92;101335.59;5056161;28;46343;-39
2023/09/02 09:48:24;;;;;;;;;1.67;1.67;;;;;55.44;12.91;101334.56;5056134;28;45418;-39
2023/09/02 09:50:51;;;;;;;;;2.00;2.00;;;;;55.43;13.21;101335.81;5055178;28;45386;-40
2023/09/02 09:53:16;;;;;;;;;3.00;3.00;;;;;54.70;13.49;101329.22;5056393;28;45355;-38
2023/09/02 09:55:43;;;;;;;;;1.00;1.00;;;;;54.31;13.71;101333.59;5056040;28;45394;-40
2023/09/02 09:58:08;;;;;;;;;2.25;2.25;;;;;54.15;13.81;101350.53;5056101;28;45211;-39
2023/09/02 10:00:34;;;;;;;;;2.00;2.00;;;;;54.85;13.22;101333.41;5055499;28;45334;-40
2023/09/02 10:02:59;;;;;;;;;2.00;2.00;;;;;55.57;12.44;101338.34;5056279;28;45380;-39
2023/09/02 10:05:28;;;;;;;;;4.33;3.00;;;;;56.06;12.11;101343.28;5055855;28;45673;-40
2023/09/02 10:08:02;;;;;;;;;1.75;1.75;;;;;56.30;12.33;101341.03;5055935;28;45533;-40
2023/09/02 10:10:30;;;;;;;;;2.00;2.00;;;;;55.89;14.13;101349.00;5056041;28;45293;-39
2023/09/02 10:12:57;;;;;;;;;1.75;1.75;;;;;55.98;11.90;101334.09;5056334;28;45450;-40
2023/09/02 10:15:26;;;;;;;;;3.25;3.25;;;;;56.07;11.94;101344.88;5055717;28;46840;-40
2023/09/02 10:17:57;;;;;;;;;2.75;2.75;;;;;56.69;13.31;101351.41;5055954;28;45458;-39
2023/09/02 10:20:28;;;;;;;;;3.50;2.00;;;;;55.11;13.22;101345.88;5055678;28;45587;-38
2023/09/02 10:22:54;;;;;;;;;3.00;3.00;;;;;53.40;14.63;101337.50;5056007;28;45328;-39
2023/09/02 10:25:27;;;;;;;;;2.00;2.00;;;;;52.79;14.29;101346.75;5055520;28;46176;-39
2023/09/02 10:28:11;;;;;;;;;2.00;2.00;;;;;52.72;14.55;101335.44;5055875;28;45247;-38
2023/09/02 10:30:46;;;;;;;;;2.00;2.00;;;;;53.56;14.77;101327.09;5055866;28;45640;-38
2023/09/02 10:33:22;;;;;;;;;3.00;3.00;;;;;53.58;14.30;101330.31;5056166;28;45341;-38
2023/09/02 10:35:57;;;;;;;;;4.00;4.00;;;;;53.92;13.70;101340.78;5055309;28;47632;-40
2023/09/02 10:38:24;;;;;;;;;4.00;1.00;;;;;54.67;12.48;101330.91;5055211;28;45553;-39
2023/09/02 10:40:58;;;;;;;;;2.50;2.50;;;;;54.59;13.28;101323.75;5056027;28;45402;-40
2023/09/02 10:43:24;;;;;;;;;0.75;0.75;;;;;54.52;13.48;101312.47;5055988;28;45394;-41
2023/09/02 10:45:50;;;;;;;;;1.25;1.25;;;;;54.58;12.83;101322.13;5055667;28;46502;-39
2023/09/02 10:48:17;;;;;;;;;2.00;0.75;;;;;54.09;13.07;101313.25;5055642;28;45884;-39
2023/09/02 10:50:43;;;;;;;;;1.00;1.00;;;;;54.08;13.54;101315.28;5056092;28;45361;-39
2023/09/02 10:53:09;;;;;;;;;1.00;1.00;;;;;53.88;12.82;101314.41;5054539;28;45271;-39
2023/09/02 10:55:57;;;;;;;;;1.67;1.00;;;;;54.33;14.09;101319.75;5055191;28;45500;-39
2023/09/02 10:58:23;;;;;;;;;1.00;0.25;;;;;54.55;13.30;101320.16;5054882;28;45324;-40
2023/09/02 11:00:52;;;;;;;;;3.00;1.67;;;;;54.85;13.75;101327.72;5055469;28;45305;-38
2023/09/02 11:03:46;;;;;;;;;0.25;0.25;;;;;54.54;13.03;101339.31;5055558;28;45321;-38
2023/09/02 11:06:14;;;;;;;;;1.00;1.00;;;;;54.61;13.73;101334.69;5055228;28;45485;-38
2023/09/02 11:08:53;;;;;;;;;2.00;1.00;;;;;54.63;13.94;101329.38;5055662;28;45351;-40
2023/09/02 11:11:19;;;;;;;;;1.75;1.25;;;;;55.18;13.48;101319.28;5055562;28;45402;-40
2023/09/02 11:14:06;;;;;;;;;0.75;0.75;;;;;55.17;12.70;101329.09;5058735;28;45482;-40
2023/09/02 11:16:33;;;;;;;;;1.00;1.00;;;;;55.39;12.13;101332.25;5058543;28;45378;-40
2023/09/02 11:19:06;;;;;;;;;0.25;0.25;;;;;55.42;13.13;101337.06;5058897;28;45786;-44
2023/09/02 11:21:46;;;;;;;;;2.00;2.00;;;;;55.16;13.96;101328.28;5057319;28;45855;-39
2023/09/02 11:24:21;;;;;;;;;0.50;0.50;;;;;54.95;12.89;101332.38;5059052;28;45457;-39